createdAt,value
2018-12-06T00:01:48.142Z,7.06
2018-12-06T00:04:17.032Z,7.52
2018-12-06T03:52:07.146Z,7.17
2018-12-06T03:54:36.389Z,7.51
2018-12-06T03:57:05.567Z,7.45
2018-12-06T03:59:34.698Z,7.57
2018-12-06T04:02:03.964Z,7.59
2018-12-06T04:04:33.085Z,7.44
2018-12-06T04:07:02.259Z,7.41
2018-12-06T04:09:31.429Z,7.37
2018-12-06T04:12:00.635Z,7.53
2018-12-06T04:14:29.832Z,7.68
2018-12-06T04:16:59.025Z,7.69
2018-12-06T04:19:28.346Z,7.76
2018-12-06T04:21:57.549Z,7.75
2018-12-06T04:24:26.788Z,7.75
2018-12-06T04:26:55.944Z,7.82
2018-12-06T04:29:25.205Z,7.84
2018-12-06T04:31:54.418Z,7.78
2018-12-06T04:34:23.722Z,7.78
2018-12-06T04:36:52.934Z,7.84
2018-12-06T04:39:22.096Z,7.75
2018-12-06T04:41:51.317Z,7.88
2018-12-06T04:44:20.622Z,7.86
2018-12-06T04:46:49.826Z,7.81
2018-12-06T04:49:19.119Z,7.79
2018-12-06T04:51:48.281Z,7.91
2018-12-06T04:54:17.518Z,7.93
2018-12-06T04:56:46.682Z,8.03
2018-12-06T04:59:15.894Z,8.15
2018-12-06T05:01:45.104Z,8.08
2018-12-06T05:04:14.640Z,8.07
2018-12-06T05:06:43.810Z,7.97
2018-12-06T05:09:13.079Z,8.05
2018-12-06T05:11:42.171Z,7.82
2018-12-06T05:14:11.508Z,7.95
2018-12-06T05:16:40.835Z,8.08
2018-12-06T05:19:10.080Z,8.04
2018-12-06T05:21:39.406Z,8.09
2018-12-06T05:24:08.705Z,8.13
2018-12-06T05:26:38.025Z,8.03
2018-12-06T05:29:07.225Z,8.03
2018-12-06T05:31:36.504Z,7.98
2018-12-06T05:34:05.780Z,8.07
2018-12-06T05:36:35.125Z,7.91
2018-12-06T05:39:05.422Z,7.98
2018-12-06T05:41:34.853Z,7.96
2018-12-06T05:44:04.076Z,7.90
2018-12-06T05:46:33.837Z,7.81
2018-12-06T05:49:03.044Z,7.94
2018-12-06T05:51:32.348Z,7.89
2018-12-06T05:54:01.615Z,8.02
2018-12-06T05:56:31.065Z,7.78
2018-12-06T05:59:01.025Z,7.92
2018-12-06T06:01:30.263Z,7.97
2018-12-06T06:03:59.441Z,8.03
2018-12-06T06:06:28.665Z,7.77
2018-12-06T17:51:24.324Z,12.22
2018-12-06T17:53:54.175Z,12.35
2018-12-06T17:57:13.756Z,12.31
2018-12-06T17:59:44.079Z,12.41
2018-12-06T18:02:13.016Z,12.44
2018-12-06T18:04:42.518Z,12.43
2018-12-06T18:07:13.478Z,12.09
2018-12-06T18:09:42.575Z,11.42
2018-12-06T18:12:11.504Z,11.99
2018-12-06T18:14:40.543Z,12.20
2018-12-06T18:17:09.438Z,12.28
2018-12-06T18:19:38.664Z,12.06
2018-12-06T18:22:07.606Z,12.12
2018-12-06T18:24:36.657Z,12.00
2018-12-06T18:27:05.589Z,11.93
2018-12-06T18:29:34.528Z,12.03
2018-12-06T18:32:03.489Z,12.14
2018-12-06T18:34:32.550Z,12.17
2018-12-06T18:37:02.089Z,12.05
2018-12-06T18:39:31.747Z,11.89
2018-12-06T18:42:00.853Z,12.04
2018-12-06T18:44:30.871Z,12.18
2018-12-06T18:47:00.826Z,12.21
2018-12-06T18:49:29.973Z,12.15
2018-12-06T18:51:59.240Z,12.10
2018-12-06T18:54:30.394Z,11.80
2018-12-06T18:56:59.623Z,12.23
2018-12-06T18:59:29.683Z,12.18
2018-12-06T19:01:58.874Z,12.31
2018-12-06T19:04:28.049Z,12.41
2018-12-06T19:06:57.258Z,12.44
2018-12-06T19:09:26.317Z,12.52
2018-12-06T19:11:56.960Z,12.56
2018-12-06T19:14:27.835Z,12.54
2018-12-06T19:16:57.396Z,12.67
2018-12-06T19:19:26.576Z,12.44
2018-12-06T19:21:57.260Z,12.40
2018-12-06T19:24:26.357Z,12.54
2018-12-06T19:26:55.547Z,12.58
2018-12-06T19:29:24.624Z,12.55
2018-12-06T19:31:53.908Z,12.58
2018-12-06T19:34:23.128Z,12.51
2018-12-06T19:36:52.371Z,12.47
2018-12-06T19:39:21.733Z,12.46
2018-12-06T19:41:50.948Z,12.58
2018-12-06T19:44:20.209Z,12.62
2018-12-06T19:46:49.596Z,12.59
2018-12-06T19:49:20.709Z,12.70
2018-12-06T19:51:50.039Z,12.78
2018-12-06T19:54:19.332Z,12.79
2018-12-06T19:56:48.587Z,12.73
2018-12-06T19:59:17.731Z,12.68
2018-12-06T20:01:47.001Z,12.30
2018-12-06T20:04:16.221Z,12.18
2018-12-06T20:06:45.617Z,12.19
2018-12-06T20:09:14.963Z,12.25
2018-12-06T20:11:44.031Z,12.29
2018-12-06T20:14:13.411Z,12.13
2018-12-06T20:16:42.672Z,12.01
2018-12-06T20:19:11.760Z,12.08
2018-12-06T20:21:41.026Z,12.00
2018-12-06T20:24:10.205Z,11.92
2018-12-06T20:26:39.435Z,11.90
2018-12-06T20:29:08.906Z,12.01
2018-12-06T20:31:38.165Z,12.28
2018-12-06T20:34:07.653Z,12.41
2018-12-06T20:36:37.393Z,12.44
2018-12-06T20:39:08.105Z,12.02
2018-12-06T20:41:37.810Z,11.96
2018-12-06T20:44:07.300Z,11.86
2018-12-06T20:46:37.205Z,12.17
2018-12-06T20:49:06.491Z,12.33
2018-12-06T20:51:35.645Z,11.93
2018-12-06T20:54:04.804Z,11.76
2018-12-06T20:56:34.362Z,11.58
2018-12-06T20:59:03.590Z,12.02
2018-12-06T21:01:32.936Z,12.25
2018-12-06T21:04:02.084Z,12.39
2018-12-06T21:06:31.440Z,12.20
2018-12-06T21:09:00.690Z,12.38
2018-12-06T21:11:29.901Z,12.41
2018-12-06T21:13:59.444Z,12.38
2018-12-06T21:16:29.360Z,12.30
2018-12-06T21:18:59.629Z,12.21
2018-12-06T21:21:29.552Z,12.40
2018-12-06T21:23:59.268Z,12.23
2018-12-06T21:26:28.572Z,12.52
2018-12-06T21:28:57.833Z,12.39
2018-12-06T21:31:27.823Z,12.38
2018-12-06T21:33:57.253Z,12.40
2018-12-06T21:36:26.493Z,12.87
2018-12-06T21:38:55.860Z,13.02
2018-12-06T21:41:25.191Z,13.08
2018-12-06T21:43:56.193Z,13.17
2018-12-06T21:46:27.063Z,13.29
2018-12-06T21:48:56.237Z,13.34
2018-12-06T21:51:25.348Z,13.40
2018-12-06T21:53:54.512Z,13.31
2018-12-06T21:56:24.003Z,13.15
2018-12-06T21:58:53.156Z,13.26
2018-12-06T22:01:22.451Z,13.32
2018-12-06T22:03:51.651Z,13.31
2018-12-06T22:06:21.065Z,13.22
2018-12-06T22:08:50.384Z,13.30
2018-12-06T22:11:19.790Z,13.20
2018-12-06T22:13:50.145Z,13.26
2018-12-06T22:16:19.481Z,13.32
2018-12-06T22:18:48.785Z,13.26
2018-12-06T22:21:17.977Z,13.38
2018-12-06T22:23:47.252Z,13.35
2018-12-06T22:26:16.502Z,13.24
2018-12-06T22:28:46.046Z,12.98
2018-12-06T22:31:15.376Z,12.75
2018-12-06T22:33:45.249Z,12.93
2018-12-06T22:36:14.509Z,12.91
2018-12-06T22:38:43.771Z,13.08
2018-12-06T22:41:13.117Z,13.03
2018-12-06T22:43:42.478Z,12.97
2018-12-06T22:46:11.847Z,12.57
2018-12-06T22:48:41.085Z,12.33
2018-12-06T22:51:10.308Z,12.11
2018-12-06T22:53:39.529Z,12.37
2018-12-06T22:56:08.813Z,12.43
2018-12-06T22:58:38.192Z,12.50
2018-12-06T23:01:08.198Z,12.78
2018-12-06T23:03:38.263Z,12.78
2018-12-06T23:06:07.398Z,12.95
2018-12-06T23:08:36.413Z,12.59
2018-12-06T23:11:05.668Z,12.88
2018-12-06T23:13:34.624Z,13.13
2018-12-06T23:16:03.644Z,13.05
2018-12-06T23:18:32.600Z,13.27
2018-12-06T23:21:01.491Z,13.11
2018-12-06T23:23:30.768Z,13.02
2018-12-06T23:25:59.694Z,13.05
2018-12-06T23:28:28.957Z,13.15
2018-12-06T23:30:58.318Z,12.64
2018-12-06T23:33:31.955Z,12.48
2018-12-06T23:35:58.711Z,12.57
2018-12-06T23:38:27.940Z,12.58
2018-12-06T23:40:57.530Z,12.77
2018-12-06T23:43:27.168Z,12.85
2018-12-06T23:45:56.618Z,12.65
2018-12-06T23:48:26.380Z,13.02
2018-12-06T23:51:00.977Z,12.94
2018-12-06T23:53:30.656Z,12.89
2018-12-06T23:55:59.768Z,13.24
2018-12-06T23:58:29.051Z,13.42
